YYC weather

Calgary International Airport
Calgary, Alberta, Canada

Public forecast

Using degrees Celsius for public forecast. Weather courtesy of forecast.io.

Current aviation weather report (METAR) for Calgary International Airport

Retrieved 2020/04/05 13:51 UTC (33 minutes ago):

CYYC 051351Z 15008KT 2SM -SN BR OVC004 M07/M09 A2971 RMK ST8 SLP122

Aviation forecast (TAF) for Calgary International Airport

Retrieved 2020/04/05 12:49 UTC (2 hours ago):

TAF CYYC 051143Z 0512/0612 14010KT 2SM -SN -SG BR OVC005 TEMPO 0512/0517 P6SM -SN BKN010 BKN220 FM051700 12012KT P6SM BKN012 OVC030 TEMPO 0517/0524 4SM -SN FM060000 10010KT 4SM -SHSN BKN010 OVC050 TEMPO 0600/0605 1SM -SHSN OVC008 FM060500 06006KT 3SM -SN OVC008 TEMPO 0605/0612 3/4SM -SG BR OVC004 RMK NXT FCST BY 051500Z